»·PEaware :: AAL1169 KLAS-KLAX

AAL1169 :: KLAS-KLAX

FLIGHT INFORMATION

Flight Status: Arrived
Operator:
American Airlines
More flights by this operator :: More flights under this callsign
Pilot: Kyle S. (20700)
Aircraft: BOEING 737-800
(B738)
More flights by this aircraft type
Origin: KLAS McCarran Intl
United States
Destination: KLAX Los Angeles Intl
United States
More flights between these airports :: More routes between these airports
Route: +BOACH8 RIKII SHTNR ANJLL2
File this flight plan on PilotEdge
Remarks:
Altitude:
(Current/Filed)
31,000ft
Speed:
(Current/Filed)
440kts
Departed: 08-Oct-18 02:03 PM
Arrived: 08-Oct-18 02:49 PM
Distance/Time
Traveled:
205nm/0:46
Distance/Time
To Go:
Arrived

Flight Plot

Page will automatically refresh every two minutes.

Flight plan parsing failed; only flown route is shown


Map Options




Map Legend


Flown Route
Filed Route
Departure Airport
Arrival Airport
Navaid (VOR, NDB)
Fix

Horizontal Profiles

Position Reports

Time Latitude Longitude Heading Altitude Ground
Speed
08-Oct-18 13:35 36.085355 -115.154898 92 2113ft 0kts
08-Oct-18 13:36 36.085355 -115.154898 92 2113ft 0kts
08-Oct-18 13:37 36.085355 -115.154898 92 2113ft 0kts
08-Oct-18 13:38 36.085355 -115.154898 92 2113ft 0kts
08-Oct-18 13:39 36.085355 -115.154898 92 2113ft 0kts
08-Oct-18 13:40 36.085355 -115.154898 92 2113ft 0kts
08-Oct-18 13:41 36.085355 -115.154898 92 2113ft 0kts
08-Oct-18 13:42 36.085355 -115.154898 92 2113ft 0kts
08-Oct-18 13:43 36.085355 -115.154898 92 2113ft 0kts
08-Oct-18 13:44 36.085355 -115.154898 92 2113ft 0kts
08-Oct-18 13:45 36.085355 -115.154898 92 2113ft 0kts
08-Oct-18 13:46 36.085355 -115.154898 92 2113ft 0kts
08-Oct-18 13:47 36.085355 -115.154898 92 2113ft 0kts
08-Oct-18 13:48 36.085355 -115.154898 92 2113ft 0kts
08-Oct-18 13:49 36.085355 -115.154898 92 2113ft 0kts
08-Oct-18 13:50 36.085355 -115.154898 92 2113ft 0kts
08-Oct-18 13:51 36.085355 -115.154899 92 2113ft 0kts
08-Oct-18 13:52 36.085408 -115.155400 118 2115ft 2kts
08-Oct-18 13:53 36.085656 -115.155682 153 2115ft 0kts
08-Oct-18 13:54 36.085653 -115.155680 153 2115ft 0kts
08-Oct-18 13:55 36.083812 -115.155310 176 2117ft 0kts
08-Oct-18 13:56 36.083732 -115.155311 181 2118ft 4kts
08-Oct-18 13:57 36.082580 -115.155501 329 2121ft 18kts
08-Oct-18 13:58 36.087223 -115.157800 20 2119ft 19kts
08-Oct-18 13:59 36.093432 -115.154339 21 2091ft 27kts
08-Oct-18 14:00 36.097712 -115.152148 330 2077ft 0kts
08-Oct-18 14:01 36.097712 -115.152148 330 2077ft 0kts
08-Oct-18 14:02 36.097712 -115.152148 330 2077ft 0kts
08-Oct-18 14:03 36.097712 -115.152148 330 2077ft 0kts
08-Oct-18 14:04 36.097562 -115.154130 206 2082ft 22kts
08-Oct-18 14:05 36.066989 -115.171569 204 2630ft 183kts
08-Oct-18 14:06 36.013192 -115.206998 224 4279ft 263kts
08-Oct-18 14:07 35.972489 -115.286399 224 6830ft 286kts
08-Oct-18 14:08 35.897644 -115.313515 176 9394ft 300kts
08-Oct-18 14:09 35.810335 -115.310249 174 11287ft 334kts
08-Oct-18 14:10 35.715393 -115.299033 174 12978ft 352kts
08-Oct-18 14:11 35.618284 -115.296722 183 14957ft 362kts
08-Oct-18 14:12 35.515310 -115.304440 196 17346ft 382kts
08-Oct-18 14:13 35.420346 -115.363994 214 19627ft 394kts
08-Oct-18 14:14 35.327255 -115.431453 215 21674ft 410kts
08-Oct-18 14:15 35.227439 -115.503688 215 23622ft 425kts
08-Oct-18 14:16 35.125227 -115.580212 226 25398ft 433kts
08-Oct-18 14:17 35.044849 -115.679553 233 27151ft 435kts
08-Oct-18 14:18 34.962391 -115.784884 235 29407ft 426kts
08-Oct-18 14:19 34.882410 -115.886614 236 30831ft 416kts
08-Oct-18 14:20 34.802777 -115.987672 236 30977ft 413kts
08-Oct-18 14:21 34.723312 -116.088703 237 30979ft 415kts
08-Oct-18 14:22 34.641870 -116.192595 236 30984ft 435kts
08-Oct-18 14:23 34.557681 -116.299363 236 30560ft 438kts
08-Oct-18 14:24 34.472622 -116.406945 235 29427ft 451kts
08-Oct-18 14:25 34.399054 -116.520117 252 27457ft 409kts
08-Oct-18 14:26 34.349689 -116.639607 252 24276ft 390kts
08-Oct-18 14:27 34.302488 -116.756222 251 23244ft 389kts
08-Oct-18 14:28 34.256284 -116.870949 250 21318ft 383kts
08-Oct-18 14:29 34.211260 -116.982392 251 18901ft 347kts
08-Oct-18 14:30 34.183129 -117.085919 256 17554ft 330kts
08-Oct-18 14:31 34.153072 -117.197228 254 16867ft 355kts
08-Oct-18 14:32 34.124107 -117.302003 255 16871ft 320kts
08-Oct-18 14:33 34.096639 -117.403484 257 16875ft 318kts
08-Oct-18 14:34 34.073149 -117.497515 258 16763ft 255kts
08-Oct-18 14:35 34.058760 -117.583217 262 15660ft 255kts
08-Oct-18 14:36 34.044910 -117.665465 261 14767ft 250kts
08-Oct-18 14:37 34.031328 -117.746290 260 12733ft 244kts
08-Oct-18 14:38 34.018745 -117.820772 260 10364ft 229kts
08-Oct-18 14:39 34.006388 -117.890416 260 8890ft 173kts
08-Oct-18 14:40 33.997425 -117.942813 259 8202ft 160kts
08-Oct-18 14:41 33.985664 -117.996310 258 6735ft 175kts
08-Oct-18 14:42 33.986503 -118.056138 266 5106ft 176kts
08-Oct-18 14:43 33.982497 -118.105667 262 5098ft 142kts
08-Oct-18 14:44 33.977828 -118.151710 261 4256ft 137kts
08-Oct-18 14:45 33.973238 -118.196817 261 3511ft 135kts
08-Oct-18 14:46 33.968690 -118.241419 260 2769ft 134kts
08-Oct-18 14:47 33.964165 -118.285579 261 2043ft 132kts
08-Oct-18 14:48 33.959701 -118.329020 261 1331ft 130kts
08-Oct-18 14:49 33.955299 -118.371855 261 647ft 128kts
08-Oct-18 14:50 33.950788 -118.414275 262 123ft 115kts
08-Oct-18 14:51 33.948701 -118.426578 228 113ft 0kts
08-Oct-18 14:52 33.947399 -118.427698 194 109ft 16kts
08-Oct-18 14:53 33.941277 -118.427060 172 100ft 25kts
08-Oct-18 14:54 33.936329 -118.423950 83 104ft 23kts
08-Oct-18 14:55 33.937391 -118.413466 77 125ft 34kts

Navigation Log

Ident Type
Flight plan parsing failed, navigation log unavailable